createdAt,value
2022-12-18T00:00:07.320Z,81.76
2022-12-18T00:03:01.755Z,81.86
2022-12-18T00:05:30.282Z,81.94
2022-12-18T00:07:58.299Z,81.98
2022-12-18T00:10:26.651Z,82.11
2022-12-18T00:12:54.884Z,82.09
2022-12-18T00:15:23.100Z,82.38
2022-12-18T00:17:51.077Z,82.23
2022-12-18T00:20:26.550Z,82.43
2022-12-18T00:22:54.889Z,82.56
2022-12-18T00:25:23.262Z,82.74
2022-12-18T00:27:51.767Z,82.79
2022-12-18T00:30:19.984Z,82.62
2022-12-18T00:32:48.235Z,82.45
2022-12-18T00:35:16.415Z,82.52
2022-12-18T00:37:44.592Z,82.61
2022-12-18T00:40:13.823Z,82.56
2022-12-18T00:42:57.033Z,82.42
2022-12-18T00:45:31.449Z,82.26
2022-12-18T00:47:59.626Z,82.08
2022-12-18T00:50:28.148Z,81.95
2022-12-18T00:52:56.263Z,81.84
2022-12-18T00:55:24.486Z,81.85
2022-12-18T00:57:53.768Z,82.07
2022-12-18T01:00:21.739Z,82.02
2022-12-18T01:02:51.175Z,81.95
2022-12-18T01:05:19.515Z,81.93
2022-12-18T01:07:47.927Z,81.52
2022-12-18T01:10:16.199Z,81.47
2022-12-18T01:12:44.878Z,81.13
2022-12-18T01:15:15.043Z,80.62
2022-12-18T01:17:43.474Z,80.37
2022-12-18T01:20:13.816Z,80.33
2022-12-18T01:22:41.849Z,80.23
2022-12-18T01:25:10.461Z,80.10
2022-12-18T01:27:38.817Z,80.15
2022-12-18T01:30:07.893Z,80.12
2022-12-18T01:32:36.072Z,80.20
2022-12-18T01:35:04.667Z,80.03
2022-12-18T01:37:32.832Z,79.90
2022-12-18T01:40:00.843Z,80.00
2022-12-18T01:42:28.954Z,79.95
2022-12-18T01:45:00.030Z,79.89
2022-12-18T01:47:52.557Z,79.65
2022-12-18T01:50:28.767Z,79.68
2022-12-18T01:53:01.425Z,79.62
2022-12-18T01:55:32.598Z,79.53
2022-12-18T01:58:01.907Z,79.55
2022-12-18T02:00:30.497Z,79.53
2022-12-18T02:02:58.829Z,79.58
2022-12-18T02:05:37.575Z,79.45
2022-12-18T02:08:13.567Z,79.55
2022-12-18T02:10:49.404Z,79.49
2022-12-18T02:13:28.735Z,79.43
2022-12-18T02:16:20.683Z,79.29
2022-12-18T02:18:55.239Z,79.26
2022-12-18T02:21:32.583Z,79.33
2022-12-18T02:24:29.429Z,79.35
2022-12-18T02:27:05.925Z,79.34
2022-12-18T02:29:43.533Z,79.26
2022-12-18T02:32:18.056Z,79.33
2022-12-18T02:34:47.318Z,79.45
2022-12-18T02:37:20.350Z,79.35
2022-12-18T02:39:51.166Z,79.48
2022-12-18T02:42:20.437Z,79.52
2022-12-18T02:44:52.579Z,79.60
2022-12-18T02:47:35.071Z,79.61
2022-12-18T02:50:23.674Z,79.56
2022-12-18T02:53:23.291Z,79.69
2022-12-18T02:55:57.406Z,79.93
2022-12-18T02:58:56.005Z,80.12
2022-12-18T03:02:22.176Z,80.12
2022-12-18T03:05:04.125Z,80.32
2022-12-18T03:08:11.275Z,80.43
2022-12-18T03:10:46.960Z,80.43
2022-12-18T03:13:34.587Z,80.51
2022-12-18T03:16:06.561Z,80.65
2022-12-18T03:18:40.183Z,80.53
2022-12-18T03:21:12.224Z,80.22
2022-12-18T03:23:49.406Z,79.88
2022-12-18T03:26:23.060Z,79.57
2022-12-18T03:28:59.184Z,79.34
2022-12-18T03:31:30.452Z,79.12
2022-12-18T03:34:02.375Z,79.22
2022-12-18T03:36:38.529Z,79.10
2022-12-18T03:39:06.671Z,79.05
2022-12-18T03:41:47.570Z,78.98
2022-12-18T03:44:31.513Z,79.03
2022-12-18T03:47:16.792Z,79.16
2022-12-18T03:49:51.076Z,79.03
2022-12-18T03:52:35.154Z,79.02
2022-12-18T03:55:06.459Z,78.99
2022-12-18T03:57:36.930Z,78.88
2022-12-18T04:00:15.458Z,78.88
2022-12-18T04:02:56.681Z,78.83
2022-12-18T04:05:34.069Z,78.73
2022-12-18T04:08:03.213Z,78.66
2022-12-18T04:10:32.413Z,78.78
2022-12-18T04:13:03.806Z,78.74
2022-12-18T04:15:36.353Z,78.67
2022-12-18T04:18:04.792Z,78.57
2022-12-18T04:20:38.834Z,78.34
2022-12-18T04:23:06.771Z,78.11
2022-12-18T04:25:35.235Z,77.93
2022-12-18T04:28:09.209Z,78.29
2022-12-18T04:30:37.372Z,78.43
2022-12-18T04:33:09.015Z,78.41
2022-12-18T04:35:37.200Z,78.61
2022-12-18T04:38:09.389Z,78.43
2022-12-18T04:40:38.650Z,78.46
2022-12-18T04:43:11.717Z,78.52
2022-12-18T04:45:39.926Z,78.51
2022-12-18T04:48:09.013Z,78.49
2022-12-18T04:50:37.520Z,78.45
2022-12-18T04:53:05.682Z,78.36
2022-12-18T04:55:34.741Z,78.25
2022-12-18T04:58:03.817Z,77.94
2022-12-18T05:00:31.961Z,77.88
2022-12-18T05:03:02.824Z,77.93
2022-12-18T05:05:31.050Z,78.08
2022-12-18T05:07:59.225Z,78.16
2022-12-18T05:10:27.211Z,78.23
2022-12-18T05:12:59.301Z,78.28
2022-12-18T05:15:33.887Z,78.32
2022-12-18T05:18:03.002Z,78.16
2022-12-18T05:20:31.557Z,78.18
2022-12-18T05:22:59.666Z,78.06
2022-12-18T05:25:28.121Z,77.86
2022-12-18T05:27:56.310Z,77.92
2022-12-18T05:30:24.591Z,78.02
2022-12-18T05:32:53.053Z,78.05
2022-12-18T05:35:21.758Z,78.01
2022-12-18T05:37:50.013Z,78.05
2022-12-18T05:40:18.153Z,78.17
2022-12-18T05:42:46.093Z,78.20
2022-12-18T05:45:14.326Z,78.23
2022-12-18T05:47:42.326Z,78.05
2022-12-18T05:50:10.685Z,77.88
2022-12-18T05:52:39.264Z,77.64
2022-12-18T05:55:07.623Z,77.82
2022-12-18T05:57:35.789Z,77.82
2022-12-18T06:00:05.037Z,77.70
2022-12-18T06:02:40.796Z,77.74
2022-12-18T06:05:09.180Z,77.72
2022-12-18T06:07:37.226Z,77.69
2022-12-18T06:10:06.613Z,77.53
2022-12-18T06:12:34.666Z,77.57
2022-12-18T06:15:03.386Z,77.80
2022-12-18T06:17:32.804Z,77.71
2022-12-18T06:20:01.437Z,77.64
2022-12-18T06:22:33.022Z,77.14
2022-12-18T06:25:01.300Z,76.96
2022-12-18T06:27:30.022Z,76.71
2022-12-18T06:29:58.063Z,76.73
2022-12-18T06:32:26.232Z,76.96
2022-12-18T06:34:54.923Z,76.88
2022-12-18T06:37:27.233Z,77.00
2022-12-18T06:39:55.437Z,77.23
2022-12-18T06:42:24.317Z,77.16
2022-12-18T06:44:52.642Z,76.97
2022-12-18T06:47:20.773Z,77.06
2022-12-18T06:49:48.745Z,77.06
2022-12-18T06:52:19.581Z,77.18
2022-12-18T06:54:47.600Z,77.21
2022-12-18T06:57:15.621Z,77.12
2022-12-18T06:59:44.117Z,76.91
2022-12-18T07:02:14.043Z,76.98
2022-12-18T07:04:42.127Z,77.03
2022-12-18T07:07:10.408Z,77.01
2022-12-18T07:09:38.347Z,76.78
2022-12-18T07:12:07.827Z,76.57
2022-12-18T07:14:35.912Z,76.51
2022-12-18T07:17:04.091Z,76.26
2022-12-18T07:19:32.260Z,76.20
2022-12-18T07:22:00.962Z,76.52
2022-12-18T07:24:29.430Z,76.53
2022-12-18T07:26:57.491Z,76.34
2022-12-18T07:29:25.574Z,76.34
2022-12-18T07:31:53.713Z,76.21
2022-12-18T07:34:21.710Z,75.99
2022-12-18T07:36:49.752Z,76.15
2022-12-18T07:39:17.675Z,76.08
2022-12-18T07:42:05.705Z,75.98
2022-12-18T07:44:37.456Z,76.07
2022-12-18T07:47:09.136Z,76.00
2022-12-18T07:49:39.883Z,75.48
2022-12-18T07:52:08.129Z,74.47
2022-12-18T07:54:36.110Z,73.73
2022-12-18T07:57:07.459Z,72.97
2022-12-18T07:59:44.325Z,72.54
2022-12-18T08:02:12.505Z,72.44
2022-12-18T08:04:40.850Z,70.76
2022-12-18T08:07:08.870Z,70.41
2022-12-18T08:09:36.852Z,71.06
2022-12-18T08:12:06.009Z,71.13
2022-12-18T08:14:34.410Z,70.56
2022-12-18T08:17:02.496Z,70.28
2022-12-18T08:19:30.642Z,70.15
2022-12-18T08:21:58.592Z,69.18
2022-12-18T08:24:26.880Z,69.29
2022-12-18T08:27:20.891Z,69.40
2022-12-18T08:29:43.157Z,69.10
2022-12-18T08:32:11.419Z,69.13
2022-12-18T08:34:39.452Z,69.29
2022-12-18T08:37:07.635Z,68.60
2022-12-18T08:39:35.904Z,68.73
2022-12-18T08:42:23.052Z,68.72
2022-12-18T08:44:51.275Z,68.74
2022-12-18T08:47:19.335Z,68.68
2022-12-18T08:49:49.080Z,69.46
2022-12-18T08:52:17.038Z,69.22
2022-12-18T08:54:45.116Z,69.23
2022-12-18T08:57:13.088Z,69.37
2022-12-18T08:59:41.381Z,68.82
2022-12-18T09:02:14.129Z,68.94
2022-12-18T09:04:42.640Z,69.06
2022-12-18T09:07:10.713Z,68.38
2022-12-18T09:09:38.697Z,68.43
2022-12-18T09:12:07.105Z,68.36
2022-12-18T09:14:35.332Z,68.05
2022-12-18T09:17:03.595Z,66.83
2022-12-18T09:19:31.671Z,67.02
2022-12-18T09:21:59.681Z,67.35
2022-12-18T09:24:27.730Z,67.37
2022-12-18T09:26:57.829Z,67.06
2022-12-18T09:29:26.389Z,66.67
2022-12-18T09:31:54.421Z,67.34
2022-12-18T09:34:23.073Z,66.93
2022-12-18T09:36:52.261Z,66.83
2022-12-18T09:39:21.835Z,66.83
2022-12-18T09:41:54.909Z,66.69
2022-12-18T09:44:35.379Z,66.95
2022-12-18T09:47:19.889Z,66.83
2022-12-18T09:49:53.200Z,67.48
2022-12-18T09:52:46.495Z,67.65
2022-12-18T09:55:37.545Z,66.68
2022-12-18T09:58:18.144Z,64.79
2022-12-18T10:00:46.362Z,64.49
2022-12-18T10:03:16.886Z,64.71
2022-12-18T10:06:07.626Z,64.73
2022-12-18T10:08:48.301Z,64.73
2022-12-18T10:11:29.432Z,64.94
2022-12-18T10:14:24.944Z,64.94
2022-12-18T10:17:04.619Z,64.92
2022-12-18T10:19:35.679Z,64.48
2022-12-18T10:22:48.156Z,64.60
2022-12-18T10:25:38.076Z,64.92
2022-12-18T10:28:14.914Z,65.21
2022-12-18T10:30:44.250Z,65.82
2022-12-18T10:33:20.412Z,65.28
2022-12-18T10:35:51.675Z,65.06
2022-12-18T10:38:20.264Z,65.21
2022-12-18T10:41:03.536Z,64.81
2022-12-18T10:43:37.317Z,64.34
2022-12-18T10:46:13.936Z,64.15
2022-12-18T10:48:48.418Z,64.34
2022-12-18T10:51:27.535Z,64.21
2022-12-18T10:54:13.964Z,64.49
2022-12-18T10:56:42.802Z,64.66
2022-12-18T10:59:18.445Z,64.77
2022-12-18T11:01:52.482Z,64.96
2022-12-18T11:04:25.038Z,65.21
2022-12-18T11:07:04.686Z,65.09
2022-12-18T11:09:33.662Z,64.36
2022-12-18T11:12:05.018Z,64.28
2022-12-18T11:14:46.562Z,65.20
2022-12-18T11:17:26.641Z,65.51
2022-12-18T11:19:57.718Z,65.44
2022-12-18T11:22:34.446Z,64.80
2022-12-18T11:25:32.333Z,64.92
2022-12-18T11:28:02.077Z,65.05
2022-12-18T11:30:34.795Z,65.08
2022-12-18T11:33:14.303Z,65.16
2022-12-18T11:36:00.461Z,65.44
2022-12-18T11:38:36.550Z,65.72
2022-12-18T11:41:22.021Z,65.91
2022-12-18T11:44:04.391Z,65.08
2022-12-18T11:46:48.156Z,64.76
2022-12-18T11:49:27.889Z,64.79
2022-12-18T11:52:23.535Z,64.47
2022-12-18T11:55:00.990Z,63.95
2022-12-18T11:57:39.031Z,63.86
2022-12-18T12:00:17.820Z,63.01
2022-12-18T12:03:47.016Z,62.92
2022-12-18T12:06:32.233Z,61.48
2022-12-18T12:09:06.296Z,59.52
2022-12-18T12:11:34.336Z,58.73
2022-12-18T12:14:08.429Z,55.97
2022-12-18T12:16:46.911Z,54.29
2022-12-18T12:19:33.707Z,52.71
2022-12-18T12:22:15.100Z,53.44
2022-12-18T12:25:05.670Z,53.97
2022-12-18T12:27:46.300Z,52.71
2022-12-18T12:30:22.921Z,52.10
2022-12-18T12:32:57.146Z,52.25
2022-12-18T12:35:37.538Z,52.60
2022-12-18T12:38:11.540Z,53.48
2022-12-18T12:40:54.889Z,53.40
2022-12-18T12:43:49.573Z,53.17
2022-12-18T12:46:23.809Z,54.93
2022-12-18T12:48:58.825Z,55.17
2022-12-18T12:51:35.346Z,55.78
2022-12-18T12:54:07.754Z,56.92
2022-12-18T12:57:04.476Z,57.40
2022-12-18T12:59:46.713Z,57.92
2022-12-18T13:02:53.904Z,58.23
2022-12-18T13:05:28.419Z,58.88
2022-12-18T13:08:04.719Z,59.16
2022-12-18T13:10:41.488Z,59.39
2022-12-18T13:13:17.928Z,60.06
2022-12-18T13:16:09.323Z,60.58
2022-12-18T13:18:37.488Z,60.65
2022-12-18T13:21:20.183Z,60.73
2022-12-18T13:23:48.327Z,61.22
2022-12-18T13:26:26.312Z,61.31
2022-12-18T13:28:58.649Z,61.50
2022-12-18T13:31:42.533Z,61.39
2022-12-18T13:34:26.274Z,61.66
2022-12-18T13:36:56.712Z,61.74
2022-12-18T13:39:35.232Z,61.98
2022-12-18T13:42:07.174Z,61.99
2022-12-18T13:44:40.924Z,62.08
2022-12-18T13:47:33.761Z,62.37
2022-12-18T13:50:10.518Z,62.82
2022-12-18T13:52:40.530Z,63.16
2022-12-18T13:55:19.000Z,63.07
2022-12-18T13:57:47.830Z,63.51
2022-12-18T14:00:32.279Z,63.75
2022-12-18T14:03:01.205Z,64.23
2022-12-18T14:05:37.172Z,64.59
2022-12-18T14:08:11.208Z,65.25
2022-12-18T14:10:49.204Z,65.54
2022-12-18T14:13:43.135Z,66.19
2022-12-18T14:16:15.600Z,66.82
2022-12-18T14:19:08.461Z,67.05
2022-12-18T14:21:40.931Z,67.31
2022-12-18T14:24:21.597Z,67.90
2022-12-18T14:26:51.201Z,67.71
2022-12-18T14:29:23.736Z,67.69
2022-12-18T14:32:16.500Z,67.82
2022-12-18T14:34:52.899Z,67.71
2022-12-18T14:37:28.350Z,67.80
2022-12-18T14:40:08.736Z,67.89
2022-12-18T14:42:38.986Z,68.00
2022-12-18T14:45:43.771Z,68.23
2022-12-18T14:48:12.911Z,68.62
2022-12-18T14:50:44.003Z,68.91
2022-12-18T14:53:22.413Z,68.85
2022-12-18T14:55:50.847Z,69.47
2022-12-18T14:58:19.322Z,69.43
2022-12-18T15:00:47.882Z,69.64
2022-12-18T15:03:21.199Z,69.53
2022-12-18T15:05:49.552Z,69.67
2022-12-18T15:08:36.476Z,69.76
2022-12-18T15:11:25.039Z,69.99
2022-12-18T15:13:52.992Z,70.01
2022-12-18T15:16:21.589Z,70.00
2022-12-18T15:18:49.801Z,70.02
2022-12-18T15:21:20.425Z,70.33
2022-12-18T15:23:53.825Z,70.47
2022-12-18T15:26:23.208Z,70.17
2022-12-18T15:28:56.731Z,70.64
2022-12-18T15:31:34.405Z,71.21
2022-12-18T15:34:13.565Z,71.26
2022-12-18T15:36:41.961Z,71.26
2022-12-18T15:39:13.588Z,71.09
2022-12-18T15:41:41.872Z,71.18
2022-12-18T15:44:24.372Z,71.56
2022-12-18T15:46:52.760Z,71.81
2022-12-18T15:49:24.539Z,72.02
2022-12-18T15:51:55.870Z,72.06
2022-12-18T15:54:44.111Z,72.00
2022-12-18T15:57:27.726Z,71.93
2022-12-18T16:00:00.186Z,72.17
2022-12-18T16:02:29.730Z,72.35
2022-12-18T16:04:58.324Z,73.23
2022-12-18T16:07:29.202Z,73.04
2022-12-18T16:09:59.120Z,72.75
2022-12-18T16:12:29.941Z,72.80
2022-12-18T16:14:58.283Z,72.93
2022-12-18T16:17:26.342Z,72.88
2022-12-18T16:19:54.937Z,72.92
2022-12-18T16:22:28.820Z,73.09
2022-12-18T16:24:58.248Z,73.07
2022-12-18T16:27:26.631Z,72.93
2022-12-18T16:29:54.775Z,73.03
2022-12-18T16:32:23.698Z,72.88
2022-12-18T16:34:52.828Z,73.12
2022-12-18T16:37:20.798Z,73.18
2022-12-18T16:39:48.932Z,73.27
2022-12-18T16:42:21.262Z,73.66
2022-12-18T16:44:50.690Z,73.61
2022-12-18T16:47:20.223Z,73.60
2022-12-18T16:49:51.978Z,73.75
2022-12-18T16:52:21.168Z,73.65
2022-12-18T16:54:49.456Z,73.64
2022-12-18T16:57:20.317Z,73.89
2022-12-18T16:59:49.985Z,74.12
2022-12-18T17:02:28.569Z,74.30
2022-12-18T17:04:58.417Z,75.98
2022-12-18T17:07:28.459Z,75.34
2022-12-18T17:09:57.000Z,75.12
2022-12-18T17:12:26.853Z,75.61
2022-12-18T17:14:55.012Z,75.24
2022-12-18T17:17:24.096Z,74.92
2022-12-18T17:19:52.940Z,74.98
2022-12-18T17:22:23.495Z,74.76
2022-12-18T17:24:51.972Z,74.69
2022-12-18T17:27:19.987Z,75.00
2022-12-18T17:29:49.108Z,75.35
2022-12-18T17:32:17.942Z,75.00
2022-12-18T17:34:46.810Z,75.08
2022-12-18T17:37:15.743Z,75.04
2022-12-18T17:39:44.654Z,74.94
2022-12-18T17:42:14.901Z,74.62
2022-12-18T17:44:44.981Z,74.87
2022-12-18T17:47:14.490Z,74.85
2022-12-18T17:49:42.598Z,74.85
2022-12-18T17:52:10.939Z,74.91
2022-12-18T17:54:42.153Z,75.15
2022-12-18T17:57:10.775Z,75.18
2022-12-18T17:59:39.007Z,75.19
2022-12-18T18:02:07.622Z,75.21
2022-12-18T18:04:36.521Z,75.28
2022-12-18T18:07:04.694Z,75.39
2022-12-18T18:09:32.721Z,75.28
2022-12-18T18:12:19.446Z,75.00
2022-12-18T18:14:47.438Z,75.09
2022-12-18T18:17:15.827Z,75.04
2022-12-18T18:19:44.214Z,75.27
2022-12-18T18:22:19.235Z,75.31
2022-12-18T18:24:48.334Z,75.37
2022-12-18T18:27:16.925Z,75.19
2022-12-18T18:29:45.253Z,75.38
2022-12-18T18:32:13.330Z,75.47
2022-12-18T18:34:41.960Z,75.53
2022-12-18T18:37:11.323Z,75.47
2022-12-18T18:39:39.940Z,75.52
2022-12-18T18:42:08.046Z,75.66
2022-12-18T18:44:36.901Z,75.63
2022-12-18T18:47:06.921Z,75.83
2022-12-18T18:49:37.865Z,75.93
2022-12-18T18:52:07.306Z,76.04
2022-12-18T18:54:35.533Z,75.98
2022-12-18T18:57:20.291Z,75.97
2022-12-18T18:59:49.377Z,76.04
2022-12-18T19:02:18.010Z,76.15
2022-12-18T19:04:47.121Z,75.97
2022-12-18T19:07:23.841Z,75.79
2022-12-18T19:10:04.761Z,75.88
2022-12-18T19:12:53.300Z,75.78
2022-12-18T19:15:22.058Z,75.57
2022-12-18T19:17:50.276Z,75.43
2022-12-18T19:20:19.503Z,75.78
2022-12-18T19:22:49.001Z,76.14
2022-12-18T19:25:40.170Z,75.71
2022-12-18T19:28:13.543Z,75.93
2022-12-18T19:30:56.068Z,76.24
2022-12-18T19:33:45.180Z,76.02
2022-12-18T19:36:23.256Z,76.06
2022-12-18T19:38:53.834Z,76.24
2022-12-18T19:41:23.060Z,76.15
2022-12-18T19:43:52.786Z,76.12
2022-12-18T19:46:23.360Z,76.15
2022-12-18T19:48:52.107Z,76.08
2022-12-18T19:51:25.444Z,76.30
2022-12-18T19:53:58.930Z,76.07
2022-12-18T19:56:32.134Z,76.04
2022-12-18T19:59:01.223Z,75.88
2022-12-18T20:01:33.047Z,75.70
2022-12-18T20:04:01.912Z,75.55
2022-12-18T20:06:34.296Z,75.64
2022-12-18T20:09:06.092Z,75.69
2022-12-18T20:11:40.248Z,75.42
2022-12-18T20:14:12.394Z,75.46
2022-12-18T20:16:41.874Z,75.72
2022-12-18T20:19:13.490Z,75.81
2022-12-18T20:21:42.279Z,75.79
2022-12-18T20:24:10.668Z,75.86
2022-12-18T20:26:40.620Z,76.08
2022-12-18T20:29:08.707Z,75.98
2022-12-18T20:31:37.300Z,75.90
2022-12-18T20:34:07.014Z,76.03
2022-12-18T20:36:36.224Z,75.85
2022-12-18T20:39:10.054Z,75.87
2022-12-18T20:41:41.969Z,76.03
2022-12-18T20:44:22.216Z,75.92
2022-12-18T20:46:55.301Z,76.14
2022-12-18T20:49:25.436Z,76.74
2022-12-18T20:51:56.484Z,75.95
2022-12-18T20:54:26.945Z,76.52
2022-12-18T20:56:55.486Z,76.40
2022-12-18T20:59:25.730Z,76.72
2022-12-18T21:01:55.089Z,76.90
2022-12-18T21:04:23.996Z,77.04
2022-12-18T21:06:56.759Z,76.42
2022-12-18T21:09:37.977Z,76.48
2022-12-18T21:12:42.728Z,76.83
2022-12-18T21:15:18.307Z,76.53
2022-12-18T21:17:46.617Z,76.34
2022-12-18T21:20:18.167Z,76.21
2022-12-18T21:22:47.449Z,75.94
2022-12-18T21:25:15.620Z,75.79
2022-12-18T21:27:43.882Z,75.80
2022-12-18T21:30:12.257Z,75.77
2022-12-18T21:32:41.050Z,75.93
2022-12-18T21:35:09.536Z,75.92
2022-12-18T21:37:37.713Z,75.82
2022-12-18T21:40:06.642Z,75.90
2022-12-18T21:42:52.977Z,75.82
2022-12-18T21:45:21.491Z,75.84
2022-12-18T21:47:49.449Z,76.14
2022-12-18T21:50:18.082Z,76.06
2022-12-18T21:52:46.183Z,76.08
2022-12-18T21:55:14.204Z,76.03
2022-12-18T21:57:42.217Z,76.14
2022-12-18T22:00:18.901Z,76.31
2022-12-18T22:03:03.135Z,76.28
2022-12-18T22:05:37.880Z,76.45
2022-12-18T22:08:07.051Z,76.41
2022-12-18T22:10:36.736Z,76.08
2022-12-18T22:13:05.674Z,76.28
2022-12-18T22:15:34.321Z,76.46
2022-12-18T22:18:02.432Z,76.22
2022-12-18T22:20:30.651Z,76.02
2022-12-18T22:23:02.878Z,75.95
2022-12-18T22:25:35.771Z,76.06
2022-12-18T22:28:26.059Z,75.68
2022-12-18T22:30:59.091Z,75.98
2022-12-18T22:33:28.524Z,75.92
2022-12-18T22:35:56.688Z,75.93
2022-12-18T22:38:25.104Z,75.95
2022-12-18T22:40:54.515Z,75.97
2022-12-18T22:43:22.577Z,76.05
2022-12-18T22:45:50.652Z,76.06
2022-12-18T22:48:18.819Z,76.10
2022-12-18T22:50:47.305Z,76.03
2022-12-18T22:53:17.392Z,76.09
2022-12-18T22:55:45.432Z,76.32
2022-12-18T22:58:13.501Z,76.31
2022-12-18T23:00:41.676Z,76.18
2022-12-18T23:03:10.311Z,76.24
2022-12-18T23:05:38.621Z,76.15
2022-12-18T23:08:06.689Z,75.96
2022-12-18T23:10:38.375Z,75.80
2022-12-18T23:13:06.431Z,75.77
2022-12-18T23:15:34.607Z,75.73
2022-12-18T23:18:02.685Z,75.98
2022-12-18T23:20:30.660Z,75.98
2022-12-18T23:22:58.736Z,75.72
2022-12-18T23:25:26.796Z,75.96
2022-12-18T23:27:54.877Z,75.92
2022-12-18T23:30:22.892Z,76.04
2022-12-18T23:32:51.216Z,76.01
2022-12-18T23:35:19.398Z,75.76
2022-12-18T23:38:04.477Z,75.68
2022-12-18T23:40:32.635Z,75.89
2022-12-18T23:43:00.810Z,75.94
2022-12-18T23:45:29.501Z,76.16
2022-12-18T23:47:57.782Z,76.31
2022-12-18T23:50:29.382Z,76.38
2022-12-18T23:53:04.738Z,76.29
2022-12-18T23:55:39.527Z,76.43
2022-12-18T23:58:15.146Z,76.44
